Piloten Info

Wichtige Hinweise:

  • Neue Tower Frequenz 122,330 kHz - keine Landung ohne Funkkontakt
  • PPR Betrieb
  • Temporäre Hindernisse (Baukräne) nahe dem Flugplatz durch Bauarbeiten entlang der Nürnberger Straße (Östliche Seite).
  • Starts auf RWY 09 sind nicht gestattet. Start generell auf RWY 27. Bei Planung Rückenwinde berücksichtigen!
  • Bei Anflügen auf RWY 27 sind Hindernisse vorhanden, aus diesem Grund die versetzte Schwelle27!
  • Der Flugverein Neumarkt führt seine Starts generell auf RWY 27 und Landungen auf RWY09 durch.
  • Es besteht keine Tankmöglichkeit.

Diese Hinweis sind als Ergänzung / Hilfe zur regulären Flugplanung gedacht.

Auszüge aus AIP VFR ohne Gewähr - es gelten die offiziellen Veröffentlichungen.







METAR Informationen der nächstgelegenen Flughäfen


EDDN / Flughafen Nürnberg „Albrecht Dürer“

EDDN 141120Z VRB02KT CAVOK 23/13 Q1015 NOSIG

ETIC / Fliegerhorst Grafenwöhr AAF

ETIC 141140Z AUTO 00000KT 1400 R32/0600VP1500 HZ CLR 21/14 A2999 RMK AO2 VIS 0600V1400 SLP154 $

ETIH / Fliegerhorst Hohenfels AAF

ETIH 141056Z AUTO 00000KT 9999 CLR 20/20 A3003 RMK AO2 SLP167 T02000197 $